Boonton Township, New Jersey
Current Conditions -  °F | °C
As of 5:53 AM on Friday 28 Nov 2014 (Local Time) from KCDW Reporting Station
Overcast Overcast  
Wind Chill: 26°   Ceiling: 5000
Heat Index: 26°   Visibility: 10mi
Dew Point: 21°   Wind: 0mph
Humidity: 81%   Direction: NA
Pressure: 30.12"   Gusts: NA
Location:  40.929°N, 74.4211°W
Report Text: KCDW 281053Z AUTO 00000KT 10SM OVC050 M03/M06 A3012 RMK AO2 SLP206 T10331061 TSNO
Loading
Personal Weather Stations






























Interactive Weather Map New forecast layout! Learn more

10-Day Weather Forecast

Advertisements
Track Severe Weather on mobile